PWSweather.com
Personal Weather Stations
Station Observations
KPAEXPOR2
Wellington Estates, Export, PA 15632

Wellington EstatesExport, PA 15632

Lat: 40.446, Lon: -79.592

Elevation: 1286

Station Type: PWS1000-TD

http://www.westmorelandweather.com

Latest ConditionsUpdated 10:30:00 AM EST Thursday, Nov 15, 2018
Currently Today's Max Today's Min Today's Average
Temperature 32.8°F0.4°C 33.2°F0.7°C 29.6°F-1.3°C 31.6°F-0.2°C
Dew Point 23.0°F-5.0°C 23.0°F-5.0°C 4.1°F-15.5°C 12.3°F-10.9°C
Winds Calm Calm 9.0 mph -14.5 kmh - - 4.4 mph 7.1 kmh
Wind Gusts -- 13.6 mph21.9 kmh - -
Humidity 67% 67% 29% 45%
Pressure 30.32 in1026.8 mb 30.52 in1033.5 mb 30.32 in1026.8 mb -
Hour Temp Dew Point Humidity Winds Wind Gusts Pressure Precip Precip Rate Daily Precip Total
10:30 AM 32.8°F0.4°C 23.0°F-5.0°C 67% Calm Calm -- 30.32 in1026.8 mb 0.00 in0.0 mm 0.00 in0.0 mm 0.00 in0.0 mm
10:15 AM 32.6°F0.3°C 22.5°F-5.3°C 66% Calm Calm -- 30.34 in1027.4 mb 0.00 in0.0 mm 0.00 in0.0 mm 0.00 in0.0 mm
10:00 AM 32.1°F0.1°C 22.0°F-5.6°C 66% Calm Calm -- 30.34 in1027.4 mb 0.00 in0.0 mm 0.00 in0.0 mm 0.00 in0.0 mm
09:45 AM 31.9°F-0.1°C 21.5°F-5.8°C 65% Calm Calm -- 30.35 in1027.8 mb 0.00 in0.0 mm 0.00 in0.0 mm 0.00 in0.0 mm
09:30 AM 31.5°F-0.3°C 20.8°F-6.2°C 64% Calm Calm -- 30.36 in1028.1 mb 0.00 in0.0 mm 0.00 in0.0 mm 0.00 in0.0 mm
09:15 AM 31.5°F-0.3°C 20.0°F-6.7°C 62% Calm Calm -- 30.36 in1028.1 mb 0.00 in0.0 mm 0.00 in0.0 mm 0.00 in0.0 mm
09:00 AM 31.2°F-0.4°C 18.9°F-7.3°C 60% 3.4 mph S5.5 kmh S 9.8 mph15.8 kmh 30.37 in1028.4 mb 0.00 in0.0 mm 0.00 in0.0 mm 0.00 in0.0 mm
08:45 AM 31.5°F-0.3°C 18.0°F-7.8°C 57% 5.1 mph SE8.2 kmh SE 7.6 mph12.2 kmh 30.37 in1028.4 mb 0.00 in0.0 mm 0.00 in0.0 mm 0.00 in0.0 mm
08:30 AM 31.7°F-0.2°C 17.4°F-8.1°C 55% 5.9 mph NE9.5 kmh NE 8.3 mph13.4 kmh 30.38 in1028.8 mb 0.00 in0.0 mm 0.00 in0.0 mm 0.00 in0.0 mm
08:15 AM 31.7°F-0.2°C 16.5°F-8.6°C 53% 4.3 mph SE6.9 kmh SE 7.6 mph12.2 kmh 30.39 in1029.1 mb 0.00 in0.0 mm 0.00 in0.0 mm 0.00 in0.0 mm
08:00 AM 31.7°F-0.2°C 15.2°F-9.3°C 50% 5.4 mph SSE8.7 kmh SSE 8.3 mph13.4 kmh 30.39 in1029.1 mb 0.00 in0.0 mm 0.00 in0.0 mm 0.00 in0.0 mm
07:45 AM 31.9°F-0.1°C 14.9°F-9.5°C 49% 4.9 mph S7.9 kmh S 6.0 mph9.7 kmh 30.38 in1028.8 mb 0.00 in0.0 mm 0.00 in0.0 mm 0.00 in0.0 mm
07:30 AM 31.9°F-0.1°C 13.9°F-10.1°C 47% 5.3 mph S8.5 kmh S 7.6 mph12.2 kmh 30.40 in1029.5 mb 0.00 in0.0 mm 0.00 in0.0 mm 0.00 in0.0 mm
07:15 AM 31.9°F-0.1°C 12.9°F-10.6°C 45% 5.7 mph SE9.2 kmh SE 8.3 mph13.4 kmh 30.39 in1029.1 mb 0.00 in0.0 mm 0.00 in0.0 mm 0.00 in0.0 mm
07:00 AM 32.1°F0.1°C 12.6°F-10.8°C 44% 6.8 mph SSE10.9 kmh SSE 13.0 mph20.9 kmh 30.39 in1029.1 mb 0.00 in0.0 mm 0.00 in0.0 mm 0.00 in0.0 mm
06:45 AM 32.1°F0.1°C 11.0°F-11.7°C 41% 9.0 mph S14.5 kmh S 13.6 mph21.9 kmh 30.39 in1029.1 mb 0.00 in0.0 mm 0.00 in0.0 mm 0.00 in0.0 mm
06:30 AM 32.4°F0.2°C 9.6°F-12.4°C 38% 7.6 mph ESE12.2 kmh ESE 12.1 mph19.5 kmh 30.40 in1029.5 mb 0.00 in0.0 mm 0.00 in0.0 mm 0.00 in0.0 mm
06:15 AM 32.8°F0.4°C 7.5°F-13.6°C 34% 7.6 mph SSE12.2 kmh SSE 10.7 mph17.2 kmh 30.39 in1029.1 mb 0.00 in0.0 mm 0.00 in0.0 mm 0.00 in0.0 mm
06:00 AM 33.0°F0.6°C 6.3°F-14.3°C 32% 6.5 mph SE10.5 kmh SE 11.4 mph18.3 kmh 30.38 in1028.8 mb 0.00 in0.0 mm 0.00 in0.0 mm 0.00 in0.0 mm
05:45 AM 33.2°F0.7°C 5.0°F-15.0°C 30% 8.0 mph SE12.9 kmh SE 11.4 mph18.3 kmh 30.40 in1029.5 mb 0.00 in0.0 mm 0.00 in0.0 mm 0.00 in0.0 mm
05:30 AM 33.0°F0.6°C 4.1°F-15.5°C 29% 8.5 mph S13.7 kmh S 13.6 mph21.9 kmh 30.41 in1029.8 mb 0.00 in0.0 mm 0.00 in0.0 mm 0.00 in0.0 mm
05:15 AM 33.0°F0.6°C 4.9°F-15.1°C 30% 7.7 mph S12.4 kmh S 11.4 mph18.3 kmh 30.39 in1029.1 mb 0.00 in0.0 mm 0.00 in0.0 mm 0.00 in0.0 mm
05:00 AM 32.8°F0.4°C 6.1°F-14.4°C 32% 5.4 mph SSE8.7 kmh SSE 9.2 mph14.8 kmh 30.40 in1029.5 mb 0.00 in0.0 mm 0.00 in0.0 mm 0.00 in0.0 mm
04:45 AM 32.6°F0.3°C 7.3°F-13.7°C 34% 5.8 mph ENE9.3 kmh ENE 9.8 mph15.8 kmh 30.40 in1029.5 mb 0.00 in0.0 mm 0.00 in0.0 mm 0.00 in0.0 mm
04:30 AM 32.3°F0.2°C 7.6°F-13.6°C 35% 4.9 mph SSE7.9 kmh SSE 9.2 mph14.8 kmh 30.40 in1029.5 mb 0.00 in0.0 mm 0.00 in0.0 mm 0.00 in0.0 mm
04:15 AM 32.3°F0.2°C 8.9°F-12.8°C 37% 4.5 mph NNE7.2 kmh NNE 6.9 mph11.1 kmh 30.41 in1029.8 mb 0.00 in0.0 mm 0.00 in0.0 mm 0.00 in0.0 mm
04:00 AM 32.1°F0.1°C 9.3°F-12.6°C 38% 3.5 mph E5.6 kmh E 6.0 mph9.7 kmh 30.41 in1029.8 mb 0.00 in0.0 mm 0.00 in0.0 mm 0.00 in0.0 mm
03:45 AM 31.9°F-0.1°C 9.7°F-12.4°C 39% 4.4 mph NE7.1 kmh NE 8.3 mph13.4 kmh 30.41 in1029.8 mb 0.00 in0.0 mm 0.00 in0.0 mm 0.00 in0.0 mm
03:30 AM 31.5°F-0.3°C 9.4°F-12.6°C 39% 4.3 mph NE6.9 kmh NE 8.3 mph13.4 kmh 30.43 in1030.5 mb 0.00 in0.0 mm 0.00 in0.0 mm 0.00 in0.0 mm
03:15 AM 31.4°F-0.3°C 10.3°F-12.1°C 41% 3.7 mph ESE6.0 kmh ESE 4.5 mph7.2 kmh 30.44 in1030.8 mb 0.00 in0.0 mm 0.00 in0.0 mm 0.00 in0.0 mm
03:00 AM 31.2°F-0.4°C 10.2°F-12.1°C 41% 3.9 mph E6.3 kmh E 9.2 mph14.8 kmh 30.45 in1031.2 mb 0.00 in0.0 mm 0.00 in0.0 mm 0.00 in0.0 mm
02:45 AM 30.8°F-0.7°C 10.4°F-12.0°C 42% 2.5 mph NNE4.0 kmh NNE 6.0 mph9.7 kmh 30.47 in1031.8 mb 0.00 in0.0 mm 0.00 in0.0 mm 0.00 in0.0 mm
02:30 AM 30.8°F-0.7°C 10.9°F-11.7°C 43% 3.0 mph NE4.8 kmh NE 6.9 mph11.1 kmh 30.48 in1032.2 mb 0.00 in0.0 mm 0.00 in0.0 mm 0.00 in0.0 mm
02:15 AM 30.6°F-0.8°C 11.3°F-11.5°C 44% 3.2 mph NNE5.1 kmh NNE 6.0 mph9.7 kmh 30.48 in1032.2 mb 0.00 in0.0 mm 0.00 in0.0 mm 0.00 in0.0 mm
02:00 AM 30.6°F-0.8°C 11.3°F-11.5°C 44% 2.6 mph N4.2 kmh N 4.5 mph7.2 kmh 30.48 in1032.2 mb 0.00 in0.0 mm 0.00 in0.0 mm 0.00 in0.0 mm
01:45 AM 30.5°F-0.8°C 11.1°F-11.6°C 44% 5.1 mph NNE8.2 kmh NNE 6.9 mph11.1 kmh 30.49 in1032.5 mb 0.00 in0.0 mm 0.00 in0.0 mm 0.00 in0.0 mm
01:30 AM 29.9°F-1.2°C 11.1°F-11.6°C 45% 5.1 mph N8.2 kmh N 9.2 mph14.8 kmh 30.49 in1032.5 mb 0.00 in0.0 mm 0.00 in0.0 mm 0.00 in0.0 mm
01:15 AM 29.7°F-1.3°C 11.0°F-11.7°C 45% 3.8 mph NNE6.1 kmh NNE 6.0 mph9.7 kmh 30.50 in1032.8 mb 0.00 in0.0 mm 0.00 in0.0 mm 0.00 in0.0 mm
01:00 AM 29.6°F-1.3°C 10.8°F-11.8°C 45% 3.6 mph N5.8 kmh N 7.6 mph12.2 kmh 30.50 in1032.8 mb 0.00 in0.0 mm 0.00 in0.0 mm 0.00 in0.0 mm
12:45 AM 29.7°F-1.3°C 11.5°F-11.4°C 46% 4.3 mph NNE6.9 kmh NNE 7.6 mph12.2 kmh 30.51 in1033.2 mb 0.00 in0.0 mm 0.00 in0.0 mm 0.00 in0.0 mm
12:30 AM 29.6°F-1.3°C 10.8°F-11.8°C 45% 4.7 mph N7.6 kmh N 8.3 mph13.4 kmh 30.51 in1033.2 mb 0.00 in0.0 mm 0.00 in0.0 mm 0.00 in0.0 mm
12:15 AM 29.6°F-1.3°C 10.8°F-11.8°C 45% 5.2 mph N8.4 kmh N 7.6 mph12.2 kmh 30.51 in1033.2 mb 0.00 in0.0 mm 0.00 in0.0 mm 0.00 in0.0 mm
12:00 AM 29.7°F-1.3°C 11.0°F-11.7°C 45% 3.9 mph NE6.3 kmh NE 7.6 mph12.2 kmh 30.52 in1033.5 mb 0.00 in0.0 mm 0.00 in0.0 mm 0.00 in0.0 mm